Nearby METAR Reports

 

KLXT - Lees Summit Muni, Missouri, USA
Distance from station: E 5mi, 9km
Updated: Wed, 21-Feb-2018 6:53pm CST
Overcast
Overcast
 Wind from NE
Wind: NE 7 mph , 11 km/h
Temperature: 27°F , -3°C
Wind Chill: 19°F , -7°C
Dew Point: 23°F , -5°C
Humidity: 86%
Barometer: 30.50 inHg , 1032.8 hPa
Clouds: Overcast
Visibility: 10 miles , 16 km
Cloud details: Overcast 1200 ft
2018/02/22 00:53 KLXT 220053Z AUTO 05006KT 10SM OVC012 M03/M05 A3050 RMK AO2 SLP344 T10331050
KMKC - Kansas City/Dntn, Missouri, USA
Distance from station: NW 12mi, 19km
Updated: Wed, 21-Feb-2018 6:54pm CST
Mostly cloudy
Mostly cloudy
 Wind from NE
Wind: NE 7 mph , 11 km/h
Temperature: 28°F , -2°C
Wind Chill: 21°F , -6°C
Dew Point: 21°F , -6°C
Humidity: 74%
Barometer: 30.52 inHg , 1033.5 hPa
Clouds: Mostly cloudy
Visibility: 10 miles , 16 km
Cloud details: Mostly cloudy 1700 ft
Mostly cloudy 5500 ft
2018/02/22 00:54 KMKC 220054Z 05006KT 10SM BKN017 BKN055 M02/M06 A3052 RMK AO2 SLP344 T10171061
 
KIXD - Olathe/Industria, Kansas, USA
Distance from station: WSW 25mi, 41km
Updated: Wed, 21-Feb-2018 6:53pm CST
Overcast
Overcast
 Wind from NE
Wind: NE 9 mph , 15 km/h
Temperature: 27°F , -3°C
Wind Chill: 18°F , -8°C
Dew Point: 23°F , -5°C
Humidity: 86%
Barometer: 30.48 inHg , 1032.2 hPa
Clouds: Overcast
Visibility: 10 miles , 16 km
Cloud details: Overcast 3700 ft
2018/02/22 00:53 KIXD 220053Z 05008KT 10SM OVC037 M03/M05 A3048 RMK AO2 SLP337 T10281050
KMCI - Kansas City/Intl, Missouri, USA
Distance from station: NW 26mi, 42km
Updated: Wed, 21-Feb-2018 6:53pm CST
Overcast
Overcast
 Wind from NE
Wind: NE 12 mph , 19 km/h
Temperature: 27°F , -3°C
Wind Chill: 16°F , -9°C
Dew Point: 23°F , -5°C
Humidity: 86%
Barometer: 30.51 inHg , 1033.2 hPa
Clouds: Overcast
Visibility: 10 miles , 16 km
Cloud details: Few Clouds 1300 ft
Overcast 11000 ft
2018/02/22 00:53 KMCI 220053Z 05010KT 10SM FEW013 OVC110 M03/M05 A3051 RMK AO2 SLP346 T10331050
 
KRCM - Warrensburg Skyh, Missouri, USA
Distance from station: ESE 38mi, 62km
Updated: Wed, 21-Feb-2018 7:35pm CST
Overcast
Overcast
 Wind from NNE
Wind: NNE 6 mph , 9 km/h
Temperature: 28°F , -2°C
Wind Chill: 21°F , -6°C
Dew Point: 25°F , -4°C
Humidity: 86%
Barometer: 30.51 inHg , 1033.2 hPa
Clouds: Overcast
Visibility: 10 miles , 16 km
Cloud details: Overcast 3800 ft
2018/02/22 01:35 KRCM 220135Z AUTO 02005KT 10SM OVC038 M02/M04 A3051 RMK AO2
KLWC - Lawrence, Kansas, USA
Distance from station: W 40mi, 65km
Updated: Wed, 21-Feb-2018 6:52pm CST
Mostly cloudy
Mostly cloudy
 Wind from NE
Wind: NE 9 mph , 15 km/h
Temperature: 27°F , -3°C
Wind Chill: 18°F , -8°C
Dew Point: 23°F , -5°C
Humidity: 86%
Barometer: 30.50 inHg , 1032.8 hPa
Clouds: Mostly cloudy
Visibility: 10 miles , 16 km
Cloud details: Mostly cloudy 5000 ft
2018/02/22 00:52 KLWC 220052Z AUTO 04008KT 10SM BKN050 M03/M05 A3050 RMK AO2 SLP341 T10281050
 
KSZL - Whiteman Afb, Missouri, USA
Distance from station: ESE 53mi, 86km
Updated: Wed, 21-Feb-2018 6:55pm CST
Overcast
Overcast
 Wind from NE
Wind: NE 9 mph , 15 km/h
Temperature: 30°F , -1°C
Wind Chill: 22°F , -6°C
Dew Point: 21°F , -6°C
Humidity: 69%
Barometer: 30.46 inHg , 1031.5 hPa
Clouds: Overcast
Visibility: 10 miles , 16 km
Cloud details: Overcast 3000 ft
2018/02/22 00:55 KSZL 220055Z 04008KT 10SM OVC030 M01/M06 A3046 RMK AO2A SLP330 T10141058 $
KSTJ - St. Joseph, Missouri, USA
Distance from station: NNW 59mi, 95km
Updated: Wed, 21-Feb-2018 6:53pm CST
Overcast
Overcast
 Wind from ENE
Wind: ENE 13 mph , 20 km/h
Temperature: 28°F , -2°C
Wind Chill: 17°F , -8°C
Dew Point: 21°F , -6°C
Humidity: 74%
Barometer: 30.53 inHg , 1033.9 hPa
Clouds: Overcast
Visibility: 10 miles , 16 km
Cloud details: Overcast 12000 ft
2018/02/22 00:53 KSTJ 220053Z 06011KT 10SM OVC120 M02/M06 A3053 RMK AO2 SLP352 T10221056
 
KGLY - Clinton, Missouri, USA
Distance from station: SE 61mi, 98km
Updated: Wed, 21-Feb-2018 6:55pm CST
Overcast
Overcast
 Wind from calm
Wind: Calm
Temperature: 28°F , -2°C
Dew Point: 25°F , -4°C
Humidity: 86%
Barometer: 30.50 inHg , 1032.8 hPa
Clouds: Overcast
Visibility: 10 miles , 16 km
Cloud details: Overcast 2300 ft
2018/02/22 00:55 KGLY 220055Z AUTO 00000KT 10SM OVC023 M02/M04 A3050 RMK AO2
KFOE - Topeka/Forbes, Kansas, USA
Distance from station: W 64mi, 103km
Updated: Wed, 21-Feb-2018 6:53pm CST
Overcast
Overcast
 Wind from NNE
Wind: NNE 9 mph , 15 km/h
Temperature: 27°F , -3°C
Wind Chill: 18°F , -8°C
Dew Point: 21°F , -6°C
Humidity: 80%
Barometer: 30.48 inHg , 1032.2 hPa
Clouds: Overcast
Visibility: 10 miles , 16 km
Cloud details: Mostly cloudy 4900 ft
Overcast 12000 ft
2018/02/22 00:53 KFOE 220053Z 03008KT 10SM BKN049 OVC120 M03/M06 A3048 RMK AO2 SLP337 T10281056
 
KDMO - Sedalia, Missouri, USA
Distance from station: ESE 72mi, 116km
Updated: Wed, 21-Feb-2018 6:53pm CST
Overcast
Overcast
 Wind from ENE
Wind: ENE 16 mph , 26 km/h, Gust: 23 mph , 37 km/h
Temperature: 30°F , -1°C
Wind Chill: 19°F , -7°C
Dew Point: 25°F , -4°C
Humidity: 80%
Barometer: 30.49 inHg , 1032.5 hPa
Clouds: Overcast
Visibility: 10 miles , 16 km
Cloud details: Overcast 3000 ft
2018/02/22 00:53 KDMO 220053Z AUTO 07014G20KT 10SM OVC030 M01/M04 A3049 RMK AO2 SLP336 T10111039
KCDJ - Chillicothe, Missouri, USA
Distance from station: NE 74mi, 120km
Updated: Wed, 21-Feb-2018 6:52pm CST

 Wind from NE
Wind: NE 6 mph , 9 km/h
Temperature: 27°F , -3°C
Wind Chill: 20°F , -7°C
Dew Point: 21°F , -6°C
Humidity: 80%
Barometer: 30.55 inHg , 1034.5 hPa
2018/02/22 00:52 KCDJ 220052Z AUTO 05005KT M03/M06 A3055 RMK AO1 SLP367 T10281061
 
KFNB - Falls City/Brenn, Nebraska, USA
Distance from station: NW 96mi, 154km
Updated: Wed, 21-Feb-2018 6:53pm CST
Overcast
Overcast
 Wind from ENE
Wind: ENE 8 mph , 13 km/h
Temperature: 28°F , -2°C
Wind Chill: 20°F , -7°C
Dew Point: 19°F , -7°C
Humidity: 69%
Barometer: 30.52 inHg , 1033.5 hPa
Clouds: Overcast
Visibility: 10 miles , 16 km
Cloud details: Overcast 9500 ft
2018/02/22 00:53 KFNB 220053Z AUTO 06007KT 10SM OVC095 M02/M07 A3052 RMK AO2 SLP349 T10221072
KVER - Boonville, Missouri, USA
Distance from station: E 96mi, 154km
Updated: Wed, 21-Feb-2018 6:35pm CST
Overcast
Overcast
 Wind from NE
Wind: NE 12 mph , 19 km/h
Temperature: 30°F , -1°C
Wind Chill: 20°F , -7°C
Dew Point: 25°F , -4°C
Humidity: 80%
Barometer: 30.51 inHg , 1033.2 hPa
Clouds: Overcast
Visibility: 10 miles , 16 km
Cloud details: Overcast 3900 ft
2018/02/22 00:35 KVER 220035Z AUTO 05010KT 10SM OVC039 M01/M04 A3051 RMK AO2 T10101040